Time;durP1;ratioP1;P1;durP2;ratioP2;P2;SDS_P1;SDS_P2;PMS_P1;PMS_P2;Temp;Humidity;BMP_temperature;BMP_pressure;BME280_temperature;BME280_humidity;BME280_pressure;Samples;Min_cycle;Max_cycle;Signal;HPM_P1;HPM_P2
2021/05/02 00:00:38;;;;;;;4.47;3.15;;;22.70;42.30;;;;;;5067632;28;20380;-60
2021/05/02 00:03:05;;;;;;;4.90;3.30;;;22.70;42.40;;;;;;5080696;28;20125;-60
2021/05/02 00:05:33;;;;;;;4.55;2.88;;;22.70;42.30;;;;;;5076034;28;20412;-59
2021/05/02 00:07:59;;;;;;;4.63;3.40;;;22.70;42.30;;;;;;5082129;28;20036;-61
2021/05/02 00:10:28;;;;;;;5.05;3.17;;;22.70;42.30;;;;;;5068156;28;20340;-60
2021/05/02 00:12:54;;;;;;;4.20;3.00;;;22.60;42.20;;;;;;5066999;28;20040;-60
2021/05/02 00:15:23;;;;;;;5.45;3.22;;;22.60;42.20;;;;;;5082751;28;20036;-61
2021/05/02 00:17:50;;;;;;;4.20;2.90;;;22.60;42.20;;;;;;5087396;28;20589;-60
2021/05/02 00:20:19;;;;;;;4.40;2.97;;;22.60;42.20;;;;;;5087734;28;20072;-60
2021/05/02 00:22:47;;;;;;;4.13;2.90;;;22.60;42.20;;;;;;5088088;28;20496;-62
2021/05/02 00:25:16;;;;;;;4.38;3.10;;;22.60;42.20;;;;;;5079481;28;20341;-60
2021/05/02 00:27:42;;;;;;;4.45;3.20;;;22.60;42.20;;;;;;5086827;28;20027;-61
2021/05/02 00:30:11;;;;;;;4.05;3.00;;;22.60;42.20;;;;;;5085269;28;20605;-59
2021/05/02 00:32:38;;;;;;;4.90;3.00;;;22.60;42.20;;;;;;5083156;28;20057;-61
2021/05/02 00:35:04;;;;;;;4.05;3.00;;;22.60;42.20;;;;;;5085830;28;20131;-60
2021/05/02 00:37:30;;;;;;;4.90;3.20;;;22.60;42.20;;;;;;5086969;28;20455;-61
2021/05/02 00:39:56;;;;;;;4.55;3.20;;;22.50;42.10;;;;;;5085742;28;20067;-60
2021/05/02 00:42:25;;;;;;;4.30;2.85;;;22.50;42.10;;;;;;5086224;28;20059;-60
2021/05/02 00:45:06;;;;;;;4.38;2.83;;;22.50;42.10;;;;;;5084534;28;20047;-60
2021/05/02 00:47:33;;;;;;;4.78;3.10;;;22.50;42.10;;;;;;5087494;28;20122;-60
2021/05/02 00:50:15;;;;;;;3.92;3.00;;;22.50;42.10;;;;;;5099060;28;20046;-59
2021/05/02 00:52:47;;;;;;;4.60;2.95;;;22.50;42.00;;;;;;5086375;28;20098;-60
2021/05/02 00:55:34;;;;;;;3.92;2.92;;;22.50;42.00;;;;;;5084835;28;20538;-57
2021/05/02 00:58:04;;;;;;;4.10;3.00;;;22.50;42.10;;;;;;5085887;28;20555;-59
2021/05/02 01:00:34;;;;;;;5.00;3.17;;;22.50;42.00;;;;;;5084000;28;20035;-60
2021/05/02 01:03:02;;;;;;;3.45;2.47;;;22.50;42.00;;;;;;5068542;28;20534;-63
2021/05/02 01:05:31;;;;;;;4.03;2.70;;;22.50;42.00;;;;;;5086179;28;20245;-60
2021/05/02 01:07:59;;;;;;;3.70;2.65;;;22.50;42.00;;;;;;5085736;28;20027;-59
2021/05/02 01:10:27;;;;;;;3.67;2.80;;;22.40;41.90;;;;;;5085697;28;20059;-60
2021/05/02 01:12:58;;;;;;;3.42;2.50;;;22.40;42.00;;;;;;5086876;28;20031;-60
2021/05/02 01:15:28;;;;;;;4.32;2.90;;;22.50;42.00;;;;;;5085810;28;20024;-60
2021/05/02 01:17:59;;;;;;;3.50;2.35;;;22.40;42.00;;;;;;5086188;28;20030;-60
2021/05/02 01:20:26;;;;;;;4.00;2.80;;;22.40;42.00;;;;;;5087707;28;20126;-60
2021/05/02 01:22:56;;;;;;;4.10;2.70;;;22.40;42.00;;;;;;5086236;28;20586;-61
2021/05/02 01:25:22;;;;;;;3.90;2.47;;;22.40;42.00;;;;;;5084790;28;20407;-57
2021/05/02 01:27:53;;;;;;;3.42;2.40;;;22.40;42.00;;;;;;5074727;28;20063;-61
2021/05/02 01:30:20;;;;;;;3.70;2.70;;;22.40;42.00;;;;;;5080964;28;20036;-58
2021/05/02 01:32:45;;;;;;;3.47;2.47;;;22.40;42.00;;;;;;5085255;28;20020;-60
2021/05/02 01:35:12;;;;;;;4.40;2.67;;;22.40;42.00;;;;;;5084930;28;20027;-62
2021/05/02 01:37:37;;;;;;;3.70;2.67;;;22.30;41.90;;;;;;5086159;28;20020;-58
2021/05/02 01:40:04;;;;;;;4.47;2.90;;;22.30;41.80;;;;;;5073355;28;20036;-59
2021/05/02 01:42:29;;;;;;;3.90;2.40;;;22.30;41.90;;;;;;5076731;28;20123;-61
2021/05/02 01:44:55;;;;;;;4.35;2.53;;;22.30;41.90;;;;;;5085023;28;20451;-59
2021/05/02 01:47:21;;;;;;;3.95;2.70;;;22.30;41.90;;;;;;5086310;28;20085;-59
2021/05/02 01:49:59;;;;;;;3.90;2.60;;;22.30;41.90;;;;;;5085436;28;20024;-60
2021/05/02 01:52:27;;;;;;;3.83;2.60;;;22.30;41.90;;;;;;5086645;28;20093;-61
2021/05/02 01:54:54;;;;;;;4.07;2.28;;;22.30;41.90;;;;;;5083616;28;20024;-61
2021/05/02 01:57:28;;;;;;;3.80;2.63;;;22.30;41.80;;;;;;5087360;28;20035;-60
2021/05/02 01:59:57;;;;;;;3.78;2.50;;;22.30;41.90;;;;;;5082707;28;20368;-63
2021/05/02 02:02:24;;;;;;;3.58;2.30;;;22.30;41.80;;;;;;5072923;28;20136;-62
2021/05/02 02:04:54;;;;;;;3.45;2.55;;;22.30;41.80;;;;;;5078490;28;20058;-61
2021/05/02 02:07:20;;;;;;;3.45;2.20;;;22.30;41.80;;;;;;5084638;28;20364;-61
2021/05/02 02:09:46;;;;;;;3.05;2.30;;;22.20;41.80;;;;;;5084316;28;20459;-60
2021/05/02 02:12:12;;;;;;;3.30;2.20;;;22.30;41.90;;;;;;5084940;28;20028;-61
2021/05/02 02:14:39;;;;;;;3.15;2.28;;;22.20;41.80;;;;;;5083729;28;20027;-62
2021/05/02 02:17:06;;;;;;;3.10;2.20;;;22.30;41.90;;;;;;5073433;28;20036;-62
2021/05/02 02:19:32;;;;;;;3.85;2.50;;;22.20;41.80;;;;;;5083861;28;20134;-60
2021/05/02 02:21:59;;;;;;;3.13;2.40;;;22.20;41.80;;;;;;5079331;28;20095;-58
2021/05/02 02:24:45;;;;;;;3.03;2.00;;;22.20;41.80;;;;;;5081756;28;20032;-61
2021/05/02 02:27:12;;;;;;;2.92;2.13;;;22.20;41.80;;;;;;5080360;28;20078;-60
2021/05/02 02:29:43;;;;;;;3.40;2.40;;;22.20;41.80;;;;;;5085382;28;20060;-59
2021/05/02 02:32:12;;;;;;;3.20;2.15;;;22.20;41.80;;;;;;5083366;28;20146;-60
2021/05/02 02:34:45;;;;;;;3.58;2.20;;;22.20;41.80;;;;;;5083806;28;20194;-60
2021/05/02 02:37:19;;;;;;;3.88;2.22;;;22.20;41.80;;;;;;5086945;28;20020;-60
2021/05/02 02:39:56;;;;;;;3.38;2.30;;;22.20;41.80;;;;;;5085482;28;20494;-62
2021/05/02 02:42:26;;;;;;;3.15;1.90;;;22.10;41.80;;;;;;5083264;28;20051;-59
2021/05/02 02:45:02;;;;;;;3.17;2.28;;;22.20;41.80;;;;;;5068050;28;20037;-61
2021/05/02 02:47:43;;;;;;;3.58;2.25;;;22.20;41.80;;;;;;5071601;28;20028;-59
2021/05/02 02:50:11;;;;;;;3.17;2.17;;;22.10;41.80;;;;;;5081937;28;20466;-61
2021/05/02 02:52:53;;;;;;;3.35;2.20;;;22.10;41.80;;;;;;5085979;28;20020;-59
2021/05/02 02:55:23;;;;;;;3.28;2.10;;;22.10;41.80;;;;;;5082723;28;20039;-58
2021/05/02 02:57:54;;;;;;;3.33;2.45;;;22.10;41.80;;;;;;5084088;28;20401;-60
2021/05/02 03:00:26;;;;;;;2.88;2.00;;;22.10;41.70;;;;;;5082437;28;20067;-62
2021/05/02 03:03:03;;;;;;;2.80;1.85;;;22.10;41.80;;;;;;5081392;28;20082;-61
2021/05/02 03:05:33;;;;;;;3.22;2.03;;;22.10;41.80;;;;;;5071578;28;20028;-61
2021/05/02 03:08:01;;;;;;;2.95;1.85;;;22.10;41.80;;;;;;5068661;28;20119;-60
2021/05/02 03:10:28;;;;;;;3.63;2.13;;;22.10;41.80;;;;;;5083139;28;20502;-62
2021/05/02 03:12:55;;;;;;;3.85;2.25;;;22.10;41.80;;;;;;5077219;28;20055;-61
2021/05/02 03:15:22;;;;;;;2.45;1.80;;;22.10;41.80;;;;;;5075892;28;20021;-59
2021/05/02 03:18:06;;;;;;;3.00;1.88;;;22.10;41.80;;;;;;5047102;28;20017;-60
2021/05/02 03:20:37;;;;;;;3.03;2.00;;;22.00;41.70;;;;;;5080354;28;20515;-61
2021/05/02 03:23:08;;;;;;;3.35;2.20;;;22.00;41.70;;;;;;5085714;28;20051;-60
2021/05/02 03:25:35;;;;;;;2.95;2.05;;;22.00;41.70;;;;;;5082063;28;20036;-61
2021/05/02 03:28:06;;;;;;;2.65;1.85;;;22.00;41.80;;;;;;5084928;28;20032;-60
2021/05/02 03:30:33;;;;;;;3.05;2.13;;;22.00;41.70;;;;;;5083017;28;20051;-59
2021/05/02 03:33:03;;;;;;;3.03;2.03;;;22.00;41.70;;;;;;5083506;28;20044;-60
2021/05/02 03:35:34;;;;;;;2.75;1.80;;;22.00;41.80;;;;;;5083954;28;20111;-59
2021/05/02 03:38:25;;;;;;;2.85;1.80;;;22.00;41.80;;;;;;5084174;28;20054;-61
2021/05/02 03:40:54;;;;;;;3.05;1.90;;;22.00;41.70;;;;;;5082663;28;20052;-59
2021/05/02 03:43:19;;;;;;;2.60;1.80;;;22.00;41.70;;;;;;5082965;28;20032;-62
2021/05/02 03:45:45;;;;;;;2.85;1.80;;;22.00;41.70;;;;;;5067517;28;20414;-62
2021/05/02 03:48:10;;;;;;;3.00;1.83;;;22.00;41.70;;;;;;5077758;28;20032;-61
2021/05/02 03:50:37;;;;;;;2.35;1.70;;;22.00;41.70;;;;;;5083162;28;20063;-60
2021/05/02 03:53:03;;;;;;;2.30;1.65;;;22.00;41.70;;;;;;5084544;28;20032;-61
2021/05/02 03:55:38;;;;;;;3.45;1.88;;;22.00;42.30;;;;;;5067294;28;20036;-60
2021/05/02 03:58:08;;;;;;;2.80;1.60;;;22.00;41.70;;;;;;5068130;28;20040;-60
2021/05/02 04:00:34;;;;;;;2.53;1.60;;;21.90;41.70;;;;;;5078804;28;20059;-60
2021/05/02 04:02:59;;;;;;;3.30;1.85;;;21.90;41.70;;;;;;5081730;28;20084;-61
2021/05/02 04:05:25;;;;;;;2.50;1.65;;;21.90;41.70;;;;;;5083707;28;20024;-59
2021/05/02 04:07:50;;;;;;;2.97;1.80;;;21.90;41.70;;;;;;5087687;28;20467;-60
2021/05/02 04:10:16;;;;;;;2.42;1.67;;;21.90;41.70;;;;;;5084643;28;20032;-59
2021/05/02 04:12:42;;;;;;;2.72;1.90;;;21.90;42.20;;;;;;5088255;28;20028;-60
2021/05/02 04:15:08;;;;;;;2.30;1.52;;;21.90;41.70;;;;;;5087456;28;20019;-61
2021/05/02 04:17:33;;;;;;;2.22;1.48;;;21.90;41.70;;;;;;5088363;28;20234;-59
2021/05/02 04:19:59;;;;;;;2.20;1.55;;;21.90;41.70;;;;;;5085650;28;20594;-60
2021/05/02 04:22:29;;;;;;;2.25;1.63;;;21.90;42.30;;;;;;5088141;28;20031;-60
2021/05/02 04:24:55;;;;;;;2.53;1.65;;;21.90;41.70;;;;;;5068815;28;20035;-62
2021/05/02 04:27:20;;;;;;;3.10;1.70;;;21.90;41.70;;;;;;5093089;28;20047;-60
2021/05/02 04:29:46;;;;;;;2.30;1.60;;;21.90;41.70;;;;;;5093211;28;20035;-61
2021/05/02 04:32:11;;;;;;;2.75;1.55;;;21.90;41.70;;;;;;5086766;28;20048;-61
2021/05/02 04:34:37;;;;;;;2.95;1.80;;;21.80;41.60;;;;;;5087014;28;20119;-61
2021/05/02 04:37:03;;;;;;;2.47;1.77;;;21.90;41.70;;;;;;5087187;28;20016;-59
2021/05/02 04:39:29;;;;;;;2.42;1.65;;;21.80;41.60;;;;;;5087353;28;20586;-61
2021/05/02 04:41:55;;;;;;;2.65;1.70;;;21.80;41.60;;;;;;5082736;28;20134;-61
2021/05/02 04:44:22;;;;;;;2.30;1.50;;;21.80;41.60;;;;;;5080417;28;20166;-61
2021/05/02 04:46:47;;;;;;;3.08;1.75;;;21.80;41.70;;;;;;5080216;28;20024;-62
2021/05/02 04:49:13;;;;;;;2.20;1.52;;;21.80;41.70;;;;;;5077911;28;20051;-59
2021/05/02 04:51:39;;;;;;;2.50;1.70;;;21.80;41.70;;;;;;5086641;28;20477;-60
2021/05/02 04:54:06;;;;;;;1.70;1.30;;;21.80;41.70;;;;;;5087182;28;20027;-62
2021/05/02 04:56:32;;;;;;;2.10;1.40;;;21.80;41.70;;;;;;5084994;28;20431;-62
2021/05/02 04:58:57;;;;;;;2.75;1.65;;;21.80;41.60;;;;;;5085616;28;20066;-59
2021/05/02 05:01:23;;;;;;;1.90;1.30;;;21.80;41.60;;;;;;5080208;28;20070;-59
2021/05/02 05:03:49;;;;;;;1.85;1.20;;;21.80;41.60;;;;;;5085065;28;20028;-62
2021/05/02 05:06:15;;;;;;;2.53;1.45;;;21.70;41.60;;;;;;5067342;28;20036;-60
2021/05/02 05:08:40;;;;;;;2.63;1.67;;;21.80;41.70;;;;;;5086879;28;20031;-60
2021/05/02 05:11:07;;;;;;;2.28;1.65;;;21.70;41.60;;;;;;5086676;28;20103;-58
2021/05/02 05:13:32;;;;;;;1.95;1.40;;;21.70;41.60;;;;;;5085252;28;20074;-60
2021/05/02 05:16:00;;;;;;;2.55;1.60;;;21.70;41.60;;;;;;5086528;28;20391;-64
2021/05/02 05:18:26;;;;;;;2.20;1.50;;;21.70;41.60;;;;;;5084424;28;20055;-63
2021/05/02 05:20:53;;;;;;;2.05;1.40;;;21.70;41.60;;;;;;5084742;28;20047;-60
2021/05/02 05:23:19;;;;;;;2.35;1.52;;;21.80;41.60;;;;;;5084616;28;20028;-62
2021/05/02 05:25:45;;;;;;;1.95;1.45;;;21.70;41.60;;;;;;5084178;28;20027;-60
2021/05/02 05:28:11;;;;;;;2.13;1.38;;;21.70;41.60;;;;;;5084105;28;20081;-61
2021/05/02 05:30:37;;;;;;;2.00;1.40;;;21.70;41.60;;;;;;5085229;28;20044;-60
2021/05/02 05:33:04;;;;;;;2.20;1.40;;;21.70;41.60;;;;;;5086623;28;20028;-61
2021/05/02 05:35:30;;;;;;;2.38;1.70;;;21.70;41.60;;;;;;5085249;28;20455;-60
2021/05/02 05:37:56;;;;;;;1.90;1.27;;;21.70;41.60;;;;;;5087916;28;20054;-60
2021/05/02 05:40:23;;;;;;;2.00;1.40;;;21.70;42.10;;;;;;5087090;28;20020;-61
2021/05/02 05:42:49;;;;;;;1.85;1.30;;;21.70;41.60;;;;;;5085858;28;20030;-59
2021/05/02 05:45:18;;;;;;;2.17;1.40;;;21.70;41.60;;;;;;5083797;28;20032;-61
2021/05/02 05:47:44;;;;;;;;;;;21.60;41.50;;;;;;5085310;28;20386;-55
2021/05/02 05:50:13;;;;;;;1.52;1.10;;;21.60;41.60;;;;;;5084829;28;20378;-56
2021/05/02 05:52:39;;;;;;;2.17;1.48;;;21.60;41.50;;;;;;5085693;28;20324;-58
2021/05/02 05:55:05;;;;;;;1.85;1.20;;;21.60;41.50;;;;;;5082966;28;20028;-58
2021/05/02 05:57:31;;;;;;;2.20;1.40;;;21.70;41.60;;;;;;5084471;28;20027;-59
2021/05/02 05:59:57;;;;;;;1.65;1.20;;;21.60;41.60;;;;;;5076467;28;20086;-58
2021/05/02 06:02:22;;;;;;;1.80;1.20;;;21.60;41.60;;;;;;5081581;28;20452;-56
2021/05/02 06:04:48;;;;;;;1.77;1.30;;;21.60;41.60;;;;;;5081379;28;20028;-60
2021/05/02 06:07:13;;;;;;;2.00;1.38;;;21.60;41.60;;;;;;5083464;28;20028;-61
2021/05/02 06:09:39;;;;;;;2.00;1.35;;;21.70;41.60;;;;;;5084506;28;20473;-61
2021/05/02 06:12:05;;;;;;;1.48;1.10;;;21.60;41.60;;;;;;5083649;28;20024;-59
2021/05/02 06:14:30;;;;;;;2.20;1.42;;;21.60;41.60;;;;;;5080414;28;20036;-61
2021/05/02 06:16:56;;;;;;;2.05;1.30;;;21.60;41.60;;;;;;5086044;28;20066;-58
2021/05/02 06:19:22;;;;;;;1.38;1.08;;;21.60;41.60;;;;;;5085705;28;20036;-57
2021/05/02 06:21:47;;;;;;;1.70;1.20;;;21.60;41.70;;;;;;5085406;28;20443;-61
2021/05/02 06:24:13;;;;;;;1.70;1.20;;;21.60;41.70;;;;;;5097743;28;20028;-61
2021/05/02 06:26:38;;;;;;;2.00;1.30;;;21.60;41.70;;;;;;5085330;28;20040;-54
2021/05/02 06:29:05;;;;;;;2.20;1.30;;;21.60;41.80;;;;;;5086920;28;20028;-58
2021/05/02 06:31:30;;;;;;;1.90;1.30;;;21.60;41.80;;;;;;5084240;28;20062;-60
2021/05/02 06:33:56;;;;;;;2.65;1.50;;;21.60;41.90;;;;;;5085484;28;20024;-59
2021/05/02 06:36:22;;;;;;;2.58;1.45;;;21.60;41.90;;;;;;5085642;28;20126;-57
2021/05/02 06:38:47;;;;;;;2.42;1.20;;;21.50;41.90;;;;;;5086441;28;20154;-56
2021/05/02 06:41:13;;;;;;;2.05;1.20;;;21.50;41.90;;;;;;5085378;28;20024;-56
2021/05/02 06:43:39;;;;;;;1.90;1.10;;;21.60;42.00;;;;;;5086869;28;20050;-58
2021/05/02 06:46:04;;;;;;;1.88;1.30;;;21.60;42.10;;;;;;5072388;28;20471;-61
2021/05/02 06:48:30;;;;;;;1.70;1.25;;;21.50;42.00;;;;;;5075246;28;20028;-60
2021/05/02 06:50:55;;;;;;;2.10;1.30;;;21.60;42.10;;;;;;5078376;28;20111;-59
2021/05/02 06:53:21;;;;;;;1.40;1.10;;;21.60;42.10;;;;;;5084848;28;20032;-60
2021/05/02 06:55:47;;;;;;;2.00;1.20;;;21.50;42.10;;;;;;5075847;28;20202;-60
2021/05/02 06:58:13;;;;;;;1.90;1.27;;;21.60;42.20;;;;;;5081602;28;20496;-59
2021/05/02 07:00:38;;;;;;;1.60;1.10;;;21.50;42.70;;;;;;5081534;28;20029;-56
2021/05/02 07:03:07;;;;;;;1.83;1.10;;;21.60;42.30;;;;;;5086163;28;20451;-61
2021/05/02 07:05:34;;;;;;;2.50;1.30;;;21.50;42.30;;;;;;5079369;28;20035;-60
2021/05/02 07:08:00;;;;;;;2.42;1.45;;;21.50;42.40;;;;;;5085904;28;20354;-59
2021/05/02 07:10:27;;;;;;;2.03;1.20;;;21.50;42.40;;;;;;5083460;28;20032;-64
2021/05/02 07:12:52;;;;;;;2.30;1.10;;;21.50;42.40;;;;;;5086464;28;20401;-61
2021/05/02 07:15:18;;;;;;;1.77;1.13;;;21.50;42.40;;;;;;5066516;28;20029;-64
2021/05/02 07:17:44;;;;;;;3.22;1.23;;;21.50;42.40;;;;;;5086389;28;20024;-58
2021/05/02 07:20:12;;;;;;;2.85;1.30;;;21.50;42.50;;;;;;5085153;28;20184;-61
2021/05/02 07:22:38;;;;;;;2.10;1.30;;;21.50;42.50;;;;;;5086743;28;20036;-60
2021/05/02 07:25:05;;;;;;;1.35;1.00;;;21.50;42.50;;;;;;5084395;28;20094;-61
2021/05/02 07:27:30;;;;;;;2.30;1.23;;;21.50;42.50;;;;;;5082849;28;20031;-62
2021/05/02 07:29:56;;;;;;;1.75;1.10;;;21.50;42.50;;;;;;5084622;28;20112;-61
2021/05/02 07:32:22;;;;;;;2.15;1.38;;;21.50;42.60;;;;;;5085490;28;20454;-61
2021/05/02 07:34:47;;;;;;;1.80;1.30;;;21.50;42.50;;;;;;5084363;28;20012;-60
2021/05/02 07:37:13;;;;;;;2.05;1.20;;;21.40;42.50;;;;;;5085983;28;20474;-60
2021/05/02 07:39:40;;;;;;;1.48;1.02;;;21.50;42.60;;;;;;5084042;28;20119;-65
2021/05/02 07:42:06;;;;;;;1.80;1.10;;;21.50;42.60;;;;;;5087510;28;20123;-64
2021/05/02 07:44:32;;;;;;;2.03;1.10;;;21.50;42.60;;;;;;5087126;28;21113;-61
2021/05/02 07:46:57;;;;;;;1.48;1.20;;;21.40;42.50;;;;;;5077908;28;20088;-63
2021/05/02 07:49:23;;;;;;;1.80;1.30;;;21.40;42.60;;;;;;5086436;28;20063;-62
2021/05/02 07:51:48;;;;;;;1.33;1.02;;;21.50;42.60;;;;;;5066936;28;20028;-60
2021/05/02 07:54:14;;;;;;;1.60;1.10;;;21.40;42.70;;;;;;5088940;28;20036;-57
2021/05/02 07:56:39;;;;;;;2.13;1.30;;;21.50;42.70;;;;;;5088019;28;20297;-53
2021/05/02 07:59:05;;;;;;;1.42;0.90;;;21.40;42.70;;;;;;5087114;28;20047;-56
2021/05/02 08:01:31;;;;;;;1.85;0.98;;;21.40;42.70;;;;;;5085307;28;20036;-54
2021/05/02 08:03:56;;;;;;;1.95;1.17;;;21.40;42.70;;;;;;5086286;28;20024;-60
2021/05/02 08:06:22;;;;;;;1.67;1.20;;;21.40;42.70;;;;;;5088773;28;20131;-56
2021/05/02 08:08:48;;;;;;;1.73;1.10;;;21.40;42.80;;;;;;5089764;28;20488;-54
2021/05/02 08:11:13;;;;;;;1.52;1.08;;;21.40;42.90;;;;;;5088070;28;20031;-56
2021/05/02 08:13:39;;;;;;;2.42;1.13;;;21.40;42.90;;;;;;5088534;28;20068;-58
2021/05/02 08:16:05;;;;;;;2.13;1.33;;;21.40;42.90;;;;;;5088195;28;20499;-62
2021/05/02 08:18:30;;;;;;;1.58;1.10;;;21.40;43.00;;;;;;5086181;28;20017;-62
2021/05/02 08:20:56;;;;;;;3.90;1.38;;;21.40;43.00;;;;;;5088229;28;20031;-62
2021/05/02 08:23:22;;;;;;;3.83;1.25;;;21.40;43.10;;;;;;5075226;28;20130;-62
2021/05/02 08:25:47;;;;;;;2.38;1.10;;;21.40;43.10;;;;;;5084365;28;20060;-61
2021/05/02 08:28:13;;;;;;;1.50;1.20;;;21.40;43.20;;;;;;5087461;28;20032;-62
2021/05/02 08:30:38;;;;;;;2.08;1.27;;;21.40;43.20;;;;;;5086783;28;20475;-61
2021/05/02 08:33:04;;;;;;;2.08;1.30;;;21.40;43.60;;;;;;5087481;28;20031;-62
2021/05/02 08:35:30;;;;;;;2.15;1.20;;;21.30;43.30;;;;;;5085058;28;20183;-62
2021/05/02 08:37:55;;;;;;;1.90;1.33;;;21.40;43.40;;;;;;5079341;28;20443;-62
2021/05/02 08:40:21;;;;;;;3.40;1.20;;;21.40;43.40;;;;;;5076299;28;20103;-61
2021/05/02 08:42:47;;;;;;;1.45;1.10;;;21.40;43.40;;;;;;5075292;28;20042;-62
2021/05/02 08:45:13;;;;;;;2.72;1.15;;;21.40;43.50;;;;;;5084744;28;20081;-62
2021/05/02 08:47:39;;;;;;;1.30;1.08;;;21.40;43.50;;;;;;5093812;28;20011;-62
2021/05/02 08:50:10;;;;;;;2.95;1.20;;;21.40;43.50;;;;;;5106669;28;20047;-62
2021/05/02 08:52:36;;;;;;;2.72;1.30;;;21.40;43.60;;;;;;5078782;28;20597;-62
2021/05/02 08:55:04;;;;;;;2.42;1.20;;;21.40;43.70;;;;;;5085174;28;20031;-62
2021/05/02 08:57:30;;;;;;;1.75;1.35;;;21.40;43.70;;;;;;5087737;28;20028;-62
2021/05/02 08:59:56;;;;;;;2.17;1.20;;;21.40;43.70;;;;;;5075931;28;20151;-62
2021/05/02 09:02:26;;;;;;;4.18;1.50;;;21.50;43.80;;;;;;5073515;28;20186;-62
2021/05/02 09:04:57;;;;;;;2.78;1.70;;;21.40;43.80;;;;;;5082863;28;20518;-62
2021/05/02 09:07:23;;;;;;;5.25;1.42;;;21.40;43.80;;;;;;5085759;28;20031;-61
2021/05/02 09:09:49;;;;;;;2.33;1.40;;;21.40;43.70;;;;;;5084787;28;20039;-62
2021/05/02 09:12:25;;;;;;;3.67;1.60;;;21.50;43.90;;;;;;5082958;28;20369;-61
2021/05/02 09:14:52;;;;;;;2.47;1.23;;;21.50;43.90;;;;;;5081160;28;20520;-62
2021/05/02 09:17:39;;;;;;;2.17;1.30;;;21.50;44.00;;;;;;5077203;28;20426;-62
2021/05/02 09:20:05;;;;;;;3.45;1.60;;;21.50;43.80;;;;;;5077037;28;20099;-62
2021/05/02 09:22:31;;;;;;;2.15;1.30;;;21.50;43.80;;;;;;5082633;28;20641;-63
2021/05/02 09:25:06;;;;;;;3.55;1.40;;;21.50;43.80;;;;;;5079076;28;20086;-61
2021/05/02 09:27:32;;;;;;;2.65;1.45;;;21.50;43.90;;;;;;5059111;28;20052;-62
2021/05/02 09:30:18;;;;;;;2.67;1.30;;;21.50;43.80;;;;;;5079938;28;20111;-61
2021/05/02 09:32:48;;;;;;;3.85;1.48;;;21.50;43.80;;;;;;5078902;28;20386;-62
2021/05/02 09:35:32;;;;;;;2.30;1.23;;;21.50;43.80;;;;;;5085208;28;20359;-61
2021/05/02 09:38:13;;;;;;;3.63;1.30;;;21.50;44.00;;;;;;5080850;28;20020;-62
2021/05/02 09:40:54;;;;;;;2.95;1.40;;;21.50;43.80;;;;;;5084606;28;20184;-62
2021/05/02 09:43:42;;;;;;;2.63;1.30;;;21.50;43.80;;;;;;5084831;28;20287;-62
2021/05/02 09:46:25;;;;;;;2.30;1.42;;;21.50;43.80;;;;;;5071909;28;20115;-61
2021/05/02 09:49:04;;;;;;;3.33;1.50;;;21.50;43.90;;;;;;5070299;28;20089;-61
2021/05/02 09:51:30;;;;;;;3.20;1.40;;;21.50;43.80;;;;;;5096107;28;20035;-62
2021/05/02 09:54:12;;;;;;;2.83;1.50;;;21.60;43.90;;;;;;5085982;28;20278;-61
2021/05/02 09:56:43;;;;;;;3.00;1.50;;;21.60;43.90;;;;;;5049641;28;20032;-62
2021/05/02 09:59:23;;;;;;;2.70;1.30;;;21.60;44.00;;;;;;5079723;28;20403;-61
2021/05/02 10:02:00;;;;;;;3.70;1.40;;;21.50;44.10;;;;;;5081827;28;20527;-62
2021/05/02 10:04:32;;;;;;;3.33;1.33;;;21.50;43.90;;;;;;5085615;28;20039;-61
2021/05/02 10:06:59;;;;;;;3.67;1.70;;;21.50;43.90;;;;;;5084871;28;20108;-63
2021/05/02 10:09:25;;;;;;;2.67;1.52;;;21.50;43.80;;;;;;5082587;28;20024;-63
2021/05/02 10:11:51;;;;;;;4.22;1.27;;;21.50;43.90;;;;;;5085215;28;20506;-63
2021/05/02 10:14:17;;;;;;;2.22;1.25;;;21.60;43.90;;;;;;5084267;28;20407;-63
2021/05/02 10:16:43;;;;;;;2.72;1.58;;;21.50;44.00;;;;;;5076791;28;20099;-64
2021/05/02 10:19:10;;;;;;;2.78;1.27;;;21.50;44.00;;;;;;5084723;28;20166;-64
2021/05/02 10:21:39;;;;;;;3.92;1.65;;;21.50;44.00;;;;;;5082404;28;20082;-65
2021/05/02 10:24:06;;;;;;;3.88;1.35;;;21.50;43.90;;;;;;5054290;28;20041;-64
2021/05/02 10:26:32;;;;;;;3.15;1.40;;;21.50;43.90;;;;;;5083381;28;20051;-64
2021/05/02 10:28:58;;;;;;;4.93;1.63;;;21.50;43.90;;;;;;5085632;28;20032;-63
2021/05/02 10:31:30;;;;;;;2.90;1.15;;;21.50;43.80;;;;;;5082920;28;20059;-64
2021/05/02 10:33:56;;;;;;;2.25;1.13;;;21.50;44.00;;;;;;5080919;28;20374;-63
2021/05/02 10:36:23;;;;;;;4.15;1.23;;;21.50;44.00;;;;;;5067338;28;20036;-64
2021/05/02 10:38:54;;;;;;;3.72;1.40;;;21.50;44.10;;;;;;5075443;28;20065;-63
2021/05/02 10:41:25;;;;;;;2.05;1.20;;;21.50;44.10;;;;;;5072369;28;20074;-64
2021/05/02 10:43:52;;;;;;;3.15;1.27;;;21.50;44.10;;;;;;5084059;28;20027;-63
2021/05/02 10:46:42;;;;;;;3.67;1.30;;;21.50;44.20;;;;;;5073585;28;20032;-64
2021/05/02 10:49:18;;;;;;;4.20;1.30;;;21.50;44.20;;;;;;5084507;28;20032;-63
2021/05/02 10:51:44;;;;;;;2.83;1.30;;;21.60;44.10;;;;;;5064806;28;20110;-63
2021/05/02 10:54:16;;;;;;;2.38;1.10;;;21.50;44.20;;;;;;5084254;28;20044;-64
2021/05/02 10:56:46;;;;;;;3.38;1.15;;;21.50;44.10;;;;;;5075329;28;20100;-63
2021/05/02 10:59:13;;;;;;;2.78;1.50;;;21.60;43.90;;;;;;5079904;28;20094;-63
2021/05/02 11:01:39;;;;;;;2.60;1.23;;;21.50;43.80;;;;;;5081626;28;20046;-63
2021/05/02 11:04:05;;;;;;;2.83;1.30;;;21.50;44.50;;;;;;5081426;28;20107;-64
2021/05/02 11:06:41;;;;;;;2.15;1.13;;;21.50;44.10;;;;;;5078950;28;20090;-62
2021/05/02 11:09:09;;;;;;;1.85;1.20;;;21.60;44.10;;;;;;5080063;28;20039;-63
2021/05/02 11:11:39;;;;;;;2.50;1.17;;;21.60;44.00;;;;;;5079211;28;20045;-62
2021/05/02 11:14:08;;;;;;;3.63;1.20;;;21.60;44.10;;;;;;5078097;28;20298;-64
2021/05/02 11:16:34;;;;;;;2.88;1.20;;;21.60;44.20;;;;;;5082001;28;20032;-62
2021/05/02 11:19:00;;;;;;;2.85;1.40;;;21.60;44.20;;;;;;5086519;28;20024;-63
2021/05/02 11:21:26;;;;;;;2.92;1.27;;;21.60;44.30;;;;;;5081067;28;20054;-63
2021/05/02 11:24:01;;;;;;;2.45;1.23;;;21.60;44.30;;;;;;5083765;28;20024;-64
2021/05/02 11:27:04;;;;;;;2.17;1.30;;;21.60;44.30;;;;;;5057766;28;20283;-64
2021/05/02 11:32:29;;;;;;;2.10;1.10;;;21.60;44.30;;;;;;5077453;28;20189;-63
2021/05/02 11:35:07;;;;;;;3.45;1.30;;;21.60;44.30;;;;;;5084748;28;20024;-63
2021/05/02 11:37:45;;;;;;;1.83;1.30;;;21.50;44.20;;;;;;5076649;28;20453;-64
2021/05/02 11:40:32;;;;;;;2.03;1.10;;;21.50;44.20;;;;;;5078682;28;20154;-63
2021/05/02 11:43:23;;;;;;;2.38;1.42;;;21.50;44.10;;;;;;5080816;28;20378;-63
2021/05/02 11:46:04;;;;;;;2.20;1.00;;;21.60;44.20;;;;;;5071460;28;20387;-63
2021/05/02 11:48:32;;;;;;;2.78;1.20;;;21.50;44.10;;;;;;5083798;28;20538;-63
2021/05/02 11:51:04;;;;;;;2.95;1.17;;;21.60;44.10;;;;;;5085629;28;20113;-63
2021/05/02 11:53:43;;;;;;;1.98;1.10;;;21.50;44.00;;;;;;5088464;28;20024;-63
2021/05/02 11:56:23;;;;;;;2.13;1.08;;;21.60;44.10;;;;;;5075740;28;20557;-63
2021/05/02 11:58:51;;;;;;;1.67;1.00;;;21.50;44.00;;;;;;5085413;28;20062;-63
2021/05/02 12:01:28;;;;;;;1.75;1.08;;;21.50;43.90;;;;;;5080829;28;20046;-63
2021/05/02 12:04:05;;;;;;;1.88;1.10;;;21.60;44.10;;;;;;5081685;28;20036;-62
2021/05/02 12:06:33;;;;;;;1.95;1.08;;;21.50;43.90;;;;;;5084766;28;20024;-63
2021/05/02 12:09:01;;;;;;;2.25;1.15;;;21.60;43.90;;;;;;5085044;28;20077;-62
2021/05/02 12:11:28;;;;;;;2.40;1.10;;;21.50;43.80;;;;;;5083112;28;20028;-63
2021/05/02 12:13:56;;;;;;;2.03;1.02;;;21.50;43.90;;;;;;5080527;28;20134;-63
2021/05/02 12:16:27;;;;;;;1.92;1.00;;;21.50;43.70;;;;;;5084381;28;20155;-62
2021/05/02 12:18:54;;;;;;;1.83;1.10;;;21.60;43.80;;;;;;5085059;28;20106;-63
2021/05/02 12:21:26;;;;;;;2.20;1.08;;;21.60;43.70;;;;;;5087652;28;20053;-63
2021/05/02 12:23:53;;;;;;;2.30;1.05;;;21.60;43.70;;;;;;5074391;28;20020;-63
2021/05/02 12:26:19;;;;;;;1.60;1.00;;;21.50;43.70;;;;;;5086231;28;20095;-63
2021/05/02 12:28:46;;;;;;;2.03;1.00;;;21.50;43.70;;;;;;5081214;28;20039;-63
2021/05/02 12:31:14;;;;;;;2.13;1.02;;;21.60;43.80;;;;;;5078093;28;20557;-63
2021/05/02 12:33:41;;;;;;;2.85;1.08;;;21.60;43.70;;;;;;5084009;28;20653;-63
2021/05/02 12:36:12;;;;;;;2.03;1.20;;;21.60;43.60;;;;;;5079061;28;20032;-63
2021/05/02 12:38:39;;;;;;;1.27;0.98;;;21.60;43.60;;;;;;5081090;28;20400;-63
2021/05/02 12:41:05;;;;;;;2.63;1.10;;;21.60;43.70;;;;;;5084253;28;20020;-62
2021/05/02 12:43:33;;;;;;;1.58;1.00;;;21.50;43.60;;;;;;5078923;28;20076;-63
2021/05/02 12:46:00;;;;;;;2.25;1.10;;;21.50;43.50;;;;;;5083686;28;20089;-63
2021/05/02 12:48:32;;;;;;;1.98;0.90;;;21.50;43.50;;;;;;5080764;28;20016;-62
2021/05/02 12:50:59;;;;;;;1.98;1.15;;;21.50;43.50;;;;;;5092384;28;20096;-63
2021/05/02 12:53:42;;;;;;;1.58;0.90;;;21.60;43.60;;;;;;5085794;28;20366;-63
2021/05/02 12:56:09;;;;;;;2.38;1.08;;;21.60;43.60;;;;;;5081963;28;20024;-63
2021/05/02 12:58:41;;;;;;;1.75;1.10;;;21.50;44.00;;;;;;5082536;28;20038;-62